Wetterdaten: Woche 21.10.13 - 27.10.13 (KW43)
Datum Zeit Temperatur Luftfeuchte Luftdruck Niederschlag Windrichtung Sonnenschein Solar Wind
21.10.2013 00:00 10,7 C 96 % 1018,1 hPa 0,0 l/m N 0,00 h 0 W/m 0,4 km/h (0 Bft)
21.10.2013 01:00 10,3 C 97 % 1018,1 hPa 0,0 l/m SW 0,00 h 0 W/m 4,5 km/h (1 Bft)
21.10.2013 02:00 9,8 C 97 % 1018,2 hPa 0,0 l/m SW 0,00 h 0 W/m 2,3 km/h (1 Bft)
21.10.2013 03:00 9,7 C 98 % 1018,1 hPa 0,0 l/m SW 0,00 h 0 W/m 2,1 km/h (1 Bft)
21.10.2013 04:00 9,4 C 98 % 1017,8 hPa 0,0 l/m N 0,00 h 0 W/m 1,7 km/h (1 Bft)
21.10.2013 05:00 9,6 C 98 % 1017,8 hPa 0,0 l/m N 0,00 h 0 W/m 2,3 km/h (1 Bft)
21.10.2013 06:00 9,3 C 98 % 1017,7 hPa 0,0 l/m N 0,00 h 0 W/m 0,9 km/h (0 Bft)
21.10.2013 07:00 9,5 C 99 % 1017,5 hPa 0,0 l/m N 0,00 h 5 W/m 2,9 km/h (1 Bft)
21.10.2013 08:00 9,7 C 99 % 1018,3 hPa 0,0 l/m N 0,00 h 21 W/m 2,4 km/h (1 Bft)
21.10.2013 09:00 10,0 C 99 % 1018,6 hPa 0,0 l/m N 0,00 h 61 W/m 0,7 km/h (0 Bft)
21.10.2013 10:00 11,3 C 99 % 1018,4 hPa 0,0 l/m SW 0,42 h 194 W/m 1,3 km/h (1 Bft)
21.10.2013 11:00 13,3 C 94 % 1018,2 hPa 0,0 l/m S-SW 0,83 h 318 W/m 7,4 km/h (2 Bft)
21.10.2013 12:00 15,9 C 84 % 1018,0 hPa 0,0 l/m S-SW 1,00 h 451 W/m 10,1 km/h (2 Bft)
21.10.2013 13:00 16,9 C 80 % 1017,5 hPa 0,0 l/m S-SW 0,25 h 205 W/m 11,7 km/h (2 Bft)
21.10.2013 14:00 16,1 C 82 % 1017,3 hPa 0,0 l/m S-SW 0,08 h 151 W/m 6,6 km/h (2 Bft)
21.10.2013 15:00 16,5 C 83 % 1016,8 hPa 0,0 l/m S-SW 0,00 h 142 W/m 3,6 km/h (1 Bft)
21.10.2013 16:00 17,0 C 80 % 1016,4 hPa 0,0 l/m S-SW 0,33 h 150 W/m 3,6 km/h (1 Bft)
21.10.2013 17:00 16,6 C 82 % 1016,2 hPa 0,2 l/m S-SW 0,42 h 70 W/m 2,8 km/h (1 Bft)
21.10.2013 18:00 14,3 C 91 % 1016,2 hPa 0,0 l/m N 0,00 h 7 W/m 0,0 km/h (0 Bft)
21.10.2013 19:00 13,5 C 92 % 1016,4 hPa 0,0 l/m N 0,00 h 0 W/m 0,0 km/h (0 Bft)
21.10.2013 20:00 12,6 C 92 % 1016,2 hPa 0,0 l/m N 0,00 h 0 W/m 0,0 km/h (0 Bft)
21.10.2013 21:00 11,7 C 93 % 1016,0 hPa 0,0 l/m N 0,00 h 0 W/m 1,1 km/h (0 Bft)
21.10.2013 22:00 11,4 C 94 % 1016,1 hPa 0,0 l/m W-NW 0,00 h 0 W/m 4,0 km/h (1 Bft)
21.10.2013 23:00 11,5 C 96 % 1015,7 hPa 0,0 l/m W-NW 0,00 h 0 W/m 2,7 km/h (1 Bft)
22.10.2013 00:00 11,3 C 96 % 1015,4 hPa 0,0 l/m N 0,00 h 0 W/m 2,3 km/h (1 Bft)
22.10.2013 01:00 10,7 C 96 % 1015,2 hPa 0,0 l/m N 0,00 h 0 W/m 0,1 km/h (0 Bft)
22.10.2013 02:00 10,0 C 96 % 1015,2 hPa 0,0 l/m N 0,00 h 0 W/m 0,0 km/h (0 Bft)
22.10.2013 03:00 9,6 C 96 % 1014,9 hPa 0,0 l/m N 0,00 h 0 W/m 0,0 km/h (0 Bft)
22.10.2013 04:00 9,7 C 97 % 1014,6 hPa 0,0 l/m N 0,00 h 0 W/m 1,5 km/h (1 Bft)
22.10.2013 05:00 9,9 C 97 % 1014,5 hPa 0,0 l/m N 0,00 h 0 W/m 0,7 km/h (0 Bft)
22.10.2013 06:00 9,7 C 97 % 1014,2 hPa 0,0 l/m N 0,00 h 0 W/m 0,9 km/h (0 Bft)
22.10.2013 07:00 9,6 C 98 % 1013,8 hPa 0,0 l/m N 0,00 h 0 W/m 1,3 km/h (1 Bft)
22.10.2013 08:00 9,5 C 98 % 1013,6 hPa 0,0 l/m W-NW 0,00 h 22 W/m 1,1 km/h (0 Bft)
22.10.2013 09:00 10,3 C 99 % 1013,4 hPa 0,0 l/m N 0,00 h 68 W/m 1,7 km/h (1 Bft)
22.10.2013 10:00 12,4 C 96 % 1012,7 hPa 0,0 l/m W-NW 0,33 h 189 W/m 3,5 km/h (1 Bft)
22.10.2013 11:00 15,1 C 85 % 1012,3 hPa 0,0 l/m W-NW 0,67 h 352 W/m 5,1 km/h (1 Bft)
22.10.2013 12:00 18,3 C 71 % 1011,6 hPa 0,0 l/m O 0,83 h 388 W/m 5,5 km/h (1 Bft)
22.10.2013 13:00 20,5 C 56 % 1010,7 hPa 0,0 l/m O 0,83 h 426 W/m 5,9 km/h (2 Bft)
22.10.2013 14:00 21,8 C 56 % 1009,9 hPa 0,0 l/m O 0,33 h 257 W/m 3,7 km/h (1 Bft)
22.10.2013 15:00 22,7 C 55 % 1009,1 hPa 0,0 l/m S-SO 0,42 h 202 W/m 7,4 km/h (2 Bft)
22.10.2013 16:00 22,0 C 55 % 1008,4 hPa 0,0 l/m S-SW 0,67 h 172 W/m 9,8 km/h (2 Bft)
22.10.2013 17:00 20,0 C 63 % 1007,8 hPa 0,0 l/m S 0,50 h 83 W/m 4,3 km/h (1 Bft)
22.10.2013 18:00 16,0 C 79 % 1007,6 hPa 0,0 l/m N 0,00 h 7 W/m 1,6 km/h (1 Bft)
22.10.2013 19:00 13,7 C 87 % 1007,8 hPa 0,0 l/m N 0,00 h 0 W/m 0,3 km/h (0 Bft)
22.10.2013 20:00 12,4 C 91 % 1007,9 hPa 0,0 l/m N 0,00 h 0 W/m 0,0 km/h (0 Bft)
22.10.2013 21:00 11,8 C 92 % 1007,9 hPa 0,0 l/m N 0,00 h 0 W/m 0,4 km/h (0 Bft)
22.10.2013 22:00 11,2 C 93 % 1007,4 hPa 0,0 l/m N 0,00 h 0 W/m 0,8 km/h (0 Bft)
22.10.2013 23:00 10,7 C 93 % 1007,0 hPa 0,0 l/m N 0,00 h 0 W/m 0,9 km/h (0 Bft)
23.10.2013 00:00 10,2 C 93 % 1007,2 hPa 0,0 l/m N 0,00 h 0 W/m 0,4 km/h (0 Bft)
23.10.2013 01:00 9,9 C 94 % 1007,3 hPa 0,0 l/m N 0,00 h 0 W/m 0,3 km/h (0 Bft)
23.10.2013 02:00 9,9 C 94 % 1007,3 hPa 0,0 l/m S 0,00 h 0 W/m 0,5 km/h (0 Bft)
23.10.2013 03:00 10,9 C 94 % 1006,9 hPa 0,0 l/m S-SW 0,00 h 0 W/m 13,1 km/h (3 Bft)
23.10.2013 04:00 17,8 C 64 % 1006,7 hPa 0,0 l/m W-SW 0,00 h 0 W/m 25,5 km/h (4 Bft)
23.10.2013 05:00 18,8 C 59 % 1006,5 hPa 0,0 l/m W-SW 0,00 h 0 W/m 11,1 km/h (2 Bft)
23.10.2013 06:00 15,6 C 71 % 1006,9 hPa 0,0 l/m NW 0,00 h 0 W/m 5,1 km/h (1 Bft)
23.10.2013 07:00 13,6 C 80 % 1007,1 hPa 0,0 l/m N 0,00 h 0 W/m 1,9 km/h (1 Bft)
23.10.2013 08:00 13,0 C 84 % 1007,9 hPa 0,0 l/m N 0,00 h 14 W/m 1,7 km/h (1 Bft)
23.10.2013 09:00 12,6 C 88 % 1009,1 hPa 0,0 l/m SW 0,00 h 50 W/m 2,4 km/h (1 Bft)
23.10.2013 10:00 14,1 C 86 % 1009,9 hPa 0,0 l/m SW 0,00 h 89 W/m 2,4 km/h (1 Bft)
23.10.2013 11:00 14,7 C 87 % 1010,8 hPa 0,2 l/m SW 0,00 h 43 W/m 3,6 km/h (1 Bft)
23.10.2013 12:00 13,9 C 92 % 1011,8 hPa 2,4 l/m SW 0,00 h 22 W/m 4,3 km/h (1 Bft)
23.10.2013 13:00 13,8 C 94 % 1012,3 hPa 3,0 l/m SW 0,00 h 45 W/m 7,6 km/h (2 Bft)
23.10.2013 14:00 13,6 C 97 % 1012,3 hPa 1,0 l/m W-SW 0,00 h 88 W/m 9,8 km/h (2 Bft)
23.10.2013 15:00 13,6 C 97 % 1012,7 hPa 0,2 l/m SW 0,00 h 56 W/m 12,2 km/h (2 Bft)
23.10.2013 16:00 13,5 C 98 % 1012,9 hPa 0,0 l/m SW 0,00 h 31 W/m 13,7 km/h (3 Bft)
23.10.2013 17:00 13,3 C 98 % 1013,1 hPa 0,8 l/m SW 0,00 h 14 W/m 16,1 km/h (3 Bft)
23.10.2013 18:00 12,6 C 98 % 1012,8 hPa 0,4 l/m SW 0,00 h 0 W/m 23,6 km/h (4 Bft)
23.10.2013 19:00 11,7 C 97 % 1013,4 hPa 0,0 l/m SW 0,00 h 0 W/m 18,9 km/h (3 Bft)
23.10.2013 20:00 11,3 C 97 % 1013,8 hPa 0,0 l/m W-SW 0,00 h 0 W/m 15,2 km/h (3 Bft)
23.10.2013 21:00 11,4 C 97 % 1014,4 hPa 0,0 l/m W-SW 0,00 h 0 W/m 14,9 km/h (3 Bft)
23.10.2013 22:00 11,6 C 96 % 1014,9 hPa 0,0 l/m SW 0,00 h 0 W/m 7,5 km/h (2 Bft)
23.10.2013 23:00 11,2 C 96 % 1015,2 hPa 0,0 l/m SW 0,00 h 0 W/m 3,1 km/h (1 Bft)
24.10.2013 00:00 10,9 C 96 % 1015,2 hPa 0,0 l/m SW 0,00 h 0 W/m 3,6 km/h (1 Bft)
24.10.2013 01:00 10,8 C 97 % 1015,4 hPa 0,0 l/m SW 0,00 h 0 W/m 5,6 km/h (1 Bft)
24.10.2013 02:00 10,8 C 97 % 1016,1 hPa 0,0 l/m SW 0,00 h 0 W/m 3,9 km/h (1 Bft)
24.10.2013 03:00 10,3 C 97 % 1016,3 hPa 0,0 l/m N 0,00 h 0 W/m 1,3 km/h (1 Bft)
24.10.2013 04:00 9,7 C 97 % 1016,3 hPa 0,0 l/m N 0,00 h 0 W/m 0,3 km/h (0 Bft)
24.10.2013 05:00 9,0 C 97 % 1016,7 hPa 0,0 l/m N 0,00 h 0 W/m 0,1 km/h (0 Bft)
24.10.2013 06:00 8,5 C 97 % 1017,1 hPa 0,0 l/m N 0,00 h 0 W/m 0,4 km/h (0 Bft)
24.10.2013 07:00 8,3 C 97 % 1017,4 hPa 0,2 l/m N 0,00 h 0 W/m 0,1 km/h (0 Bft)
24.10.2013 08:00 7,6 C 97 % 1017,9 hPa 0,0 l/m N 0,00 h 27 W/m 0,3 km/h (0 Bft)
24.10.2013 09:00 7,8 C 98 % 1018,6 hPa 0,0 l/m N 0,67 h 137 W/m 0,4 km/h (0 Bft)
24.10.2013 10:00 10,1 C 99 % 1019,1 hPa 0,0 l/m SW 1,00 h 301 W/m 3,2 km/h (1 Bft)
24.10.2013 11:00 12,4 C 97 % 1019,0 hPa 0,0 l/m SW 1,00 h 401 W/m 2,4 km/h (1 Bft)
24.10.2013 12:00 14,7 C 87 % 1018,9 hPa 0,0 l/m SW 1,00 h 486 W/m 4,4 km/h (1 Bft)
24.10.2013 13:00 16,1 C 81 % 1018,4 hPa 0,0 l/m W-SW 1,00 h 500 W/m 4,9 km/h (1 Bft)
24.10.2013 14:00 16,9 C 74 % 1018,0 hPa 0,0 l/m O 0,83 h 419 W/m 6,3 km/h (2 Bft)
24.10.2013 15:00 17,4 C 68 % 1017,3 hPa 0,0 l/m O 1,00 h 380 W/m 8,4 km/h (2 Bft)
24.10.2013 16:00 17,3 C 70 % 1016,8 hPa 0,0 l/m O-NO 1,00 h 248 W/m 6,8 km/h (2 Bft)
24.10.2013 17:00 16,4 C 76 % 1016,5 hPa 0,0 l/m O-NO 0,42 h 65 W/m 6,8 km/h (2 Bft)
24.10.2013 18:00 13,6 C 88 % 1016,9 hPa 0,0 l/m N 0,08 h 8 W/m 1,3 km/h (1 Bft)
24.10.2013 19:00 11,9 C 94 % 1017,5 hPa 0,0 l/m N 0,00 h 0 W/m 1,5 km/h (1 Bft)
24.10.2013 20:00 11,0 C 96 % 1017,5 hPa 0,0 l/m N 0,00 h 0 W/m 1,1 km/h (0 Bft)
24.10.2013 21:00 10,2 C 97 % 1017,1 hPa 0,0 l/m N 0,00 h 0 W/m 0,8 km/h (0 Bft)
24.10.2013 22:00 9,8 C 98 % 1016,6 hPa 0,0 l/m N 0,00 h 0 W/m 2,3 km/h (1 Bft)
24.10.2013 23:00 9,8 C 98 % 1016,5 hPa 0,0 l/m NO 0,00 h 0 W/m 5,6 km/h (1 Bft)
25.10.2013 00:00 9,4 C 98 % 1016,5 hPa 0,0 l/m NO 0,00 h 0 W/m 3,7 km/h (1 Bft)
25.10.2013 01:00 8,2 C 98 % 1016,0 hPa 0,0 l/m N 0,00 h 0 W/m 2,1 km/h (1 Bft)
25.10.2013 02:00 7,7 C 99 % 1015,9 hPa 0,0 l/m NO 0,00 h 0 W/m 3,1 km/h (1 Bft)
25.10.2013 03:00 7,1 C 99 % 1015,7 hPa 0,0 l/m N 0,00 h 0 W/m 2,8 km/h (1 Bft)
25.10.2013 04:00 7,0 C 99 % 1015,9 hPa 0,2 l/m N-NO 0,00 h 0 W/m 4,3 km/h (1 Bft)
25.10.2013 05:00 7,1 C 99 % 1016,0 hPa 0,0 l/m N 0,00 h 0 W/m 2,9 km/h (1 Bft)
25.10.2013 06:00 7,0 C 99 % 1016,0 hPa 0,0 l/m N-NO 0,00 h 0 W/m 4,5 km/h (1 Bft)
25.10.2013 07:00 6,8 C 99 % 1016,3 hPa 0,0 l/m N 0,00 h 0 W/m 2,4 km/h (1 Bft)
25.10.2013 08:00 6,2 C 99 % 1017,1 hPa 0,0 l/m N-NO 0,00 h 22 W/m 2,7 km/h (1 Bft)
25.10.2013 09:00 6,5 C 99 % 1017,6 hPa 0,0 l/m N-NO 0,00 h 72 W/m 2,4 km/h (1 Bft)
25.10.2013 10:00 7,9 C 100 % 1017,7 hPa 0,0 l/m N-NO 0,00 h 115 W/m 4,3 km/h (1 Bft)
25.10.2013 11:00 10,1 C 100 % 1017,6 hPa 0,0 l/m W-SW 0,50 h 301 W/m 7,2 km/h (2 Bft)
25.10.2013 12:00 13,1 C 93 % 1017,4 hPa 0,0 l/m W-SW 1,00 h 422 W/m 5,5 km/h (1 Bft)
25.10.2013 13:00 15,6 C 83 % 1016,8 hPa 0,0 l/m W-SW 0,50 h 327 W/m 2,9 km/h (1 Bft)
25.10.2013 14:00 16,5 C 79 % 1016,6 hPa 0,0 l/m W-SW 0,00 h 174 W/m 2,3 km/h (1 Bft)
25.10.2013 15:00 16,8 C 79 % 1016,4 hPa 0,0 l/m W-SW 0,00 h 112 W/m 1,2 km/h (1 Bft)
25.10.2013 16:00 16,6 C 78 % 1016,0 hPa 0,0 l/m N 0,00 h 99 W/m 1,1 km/h (0 Bft)
25.10.2013 17:00 15,3 C 88 % 1015,9 hPa 0,0 l/m N 0,00 h 45 W/m 0,0 km/h (0 Bft)
25.10.2013 18:00 13,5 C 92 % 1015,8 hPa 0,0 l/m N 0,00 h 7 W/m 0,1 km/h (0 Bft)
25.10.2013 19:00 12,4 C 92 % 1015,8 hPa 0,0 l/m N 0,00 h 0 W/m 1,5 km/h (1 Bft)
25.10.2013 20:00 11,6 C 92 % 1015,8 hPa 0,0 l/m N 0,00 h 0 W/m 1,2 km/h (1 Bft)
25.10.2013 21:00 11,1 C 94 % 1015,5 hPa 0,0 l/m N 0,00 h 0 W/m 1,7 km/h (1 Bft)
25.10.2013 22:00 10,7 C 95 % 1015,3 hPa 0,0 l/m N 0,00 h 0 W/m 1,9 km/h (1 Bft)
25.10.2013 23:00 10,3 C 95 % 1015,6 hPa 0,0 l/m N 0,00 h 0 W/m 0,9 km/h (0 Bft)
26.10.2013 00:00 9,4 C 95 % 1016,4 hPa 0,0 l/m N 0,00 h 0 W/m 1,3 km/h (1 Bft)
26.10.2013 01:00 8,8 C 96 % 1016,8 hPa 0,0 l/m W-SW 0,00 h 0 W/m 2,8 km/h (1 Bft)
26.10.2013 02:00 8,8 C 96 % 1017,3 hPa 0,0 l/m W-SW 0,00 h 0 W/m 2,5 km/h (1 Bft)
26.10.2013 03:00 9,3 C 97 % 1017,4 hPa 0,2 l/m S-SW 0,00 h 0 W/m 8,4 km/h (2 Bft)
26.10.2013 04:00 9,2 C 98 % 1017,0 hPa 0,0 l/m N 0,00 h 0 W/m 4,0 km/h (1 Bft)
26.10.2013 05:00 9,1 C 98 % 1017,0 hPa 0,0 l/m N 0,00 h 0 W/m 0,5 km/h (0 Bft)
26.10.2013 06:00 8,7 C 98 % 1017,2 hPa 0,0 l/m N 0,00 h 0 W/m 0,0 km/h (0 Bft)
26.10.2013 07:00 8,2 C 98 % 1017,4 hPa 0,0 l/m N 0,00 h 5 W/m 0,0 km/h (0 Bft)
26.10.2013 08:00 7,6 C 98 % 1018,2 hPa 0,0 l/m N 0,17 h 25 W/m 0,0 km/h (0 Bft)
26.10.2013 09:00 8,2 C 98 % 1018,5 hPa 0,0 l/m N 0,00 h 63 W/m 0,9 km/h (0 Bft)
26.10.2013 10:00 10,3 C 99 % 1018,8 hPa 0,0 l/m S-SW 0,17 h 134 W/m 2,4 km/h (1 Bft)
26.10.2013 11:00 12,7 C 95 % 1018,6 hPa 0,0 l/m S-SW 0,83 h 334 W/m 4,7 km/h (1 Bft)
26.10.2013 12:00 16,8 C 78 % 1018,3 hPa 0,0 l/m S-SW 1,00 h 399 W/m 13,2 km/h (3 Bft)
26.10.2013 13:00 18,2 C 75 % 1017,6 hPa 0,0 l/m S-SW 0,83 h 387 W/m 13,0 km/h (3 Bft)
26.10.2013 14:00 18,5 C 74 % 1017,0 hPa 0,0 l/m SW 0,75 h 289 W/m 16,2 km/h (3 Bft)
26.10.2013 15:00 17,8 C 78 % 1016,5 hPa 0,0 l/m SW 0,17 h 172 W/m 13,4 km/h (3 Bft)
26.10.2013 16:00 17,4 C 79 % 1016,5 hPa 0,0 l/m S-SW 0,00 h 118 W/m 5,6 km/h (1 Bft)
26.10.2013 17:00 16,5 C 81 % 1016,4 hPa 0,0 l/m S-SW 0,00 h 43 W/m 0,8 km/h (0 Bft)
26.10.2013 18:00 13,9 C 91 % 1016,2 hPa 0,0 l/m N 0,00 h 7 W/m 0,0 km/h (0 Bft)
26.10.2013 19:00 12,3 C 95 % 1016,1 hPa 0,0 l/m N 0,00 h 0 W/m 0,0 km/h (0 Bft)
26.10.2013 20:00 11,5 C 96 % 1015,8 hPa 0,0 l/m N 0,00 h 0 W/m 0,0 km/h (0 Bft)
26.10.2013 21:00 11,0 C 96 % 1015,5 hPa 0,0 l/m N 0,00 h 0 W/m 0,4 km/h (0 Bft)
26.10.2013 22:00 10,6 C 96 % 1015,4 hPa 0,0 l/m N 0,00 h 0 W/m 0,0 km/h (0 Bft)
26.10.2013 23:00 10,3 C 96 % 1015,1 hPa 0,0 l/m N 0,00 h 0 W/m 0,3 km/h (0 Bft)
27.10.2013 00:00 10,1 C 96 % 1014,4 hPa 0,0 l/m N 0,00 h 0 W/m 0,4 km/h (0 Bft)
27.10.2013 01:00 9,7 C 96 % 1014,2 hPa 0,0 l/m N 0,00 h 0 W/m 0,3 km/h (0 Bft)
27.10.2013 02:00 9,3 C 96 % 1014,8 hPa 0,0 l/m S-SW 0,00 h 0 W/m 2,1 km/h (1 Bft)
27.10.2013 03:00 10,6 C 98 % 1014,8 hPa 0,0 l/m S-SW 0,00 h 0 W/m 13,6 km/h (3 Bft)
27.10.2013 04:00 11,4 C 98 % 1015,1 hPa 0,0 l/m SW 0,00 h 0 W/m 13,6 km/h (3 Bft)
27.10.2013 05:00 13,4 C 94 % 1015,5 hPa 0,0 l/m W 0,00 h 0 W/m 14,4 km/h (3 Bft)
27.10.2013 06:00 12,8 C 91 % 1015,6 hPa 1,0 l/m W-SW 0,00 h 0 W/m 8,7 km/h (2 Bft)
27.10.2013 07:00 12,2 C 95 % 1015,5 hPa 1,4 l/m W-SW 0,00 h 9 W/m 12,4 km/h (3 Bft)
27.10.2013 08:00 12,1 C 95 % 1015,0 hPa 0,4 l/m SW 0,00 h 25 W/m 14,9 km/h (3 Bft)
27.10.2013 09:00 12,2 C 98 % 1014,4 hPa 0,2 l/m S-SW 0,00 h 64 W/m 18,0 km/h (3 Bft)
27.10.2013 10:00 12,5 C 98 % 1013,7 hPa 0,6 l/m S-SW 0,00 h 69 W/m 18,8 km/h (3 Bft)
27.10.2013 11:00 13,2 C 98 % 1013,3 hPa 0,2 l/m SW 0,00 h 78 W/m 20,4 km/h (4 Bft)
27.10.2013 12:00 13,6 C 94 % 1012,1 hPa 0,0 l/m SW 0,00 h 88 W/m 22,7 km/h (4 Bft)
27.10.2013 13:00 14,8 C 90 % 1011,6 hPa 0,0 l/m SW 0,58 h 337 W/m 24,7 km/h (4 Bft)
27.10.2013 14:00 15,2 C 86 % 1011,7 hPa 0,8 l/m W 0,00 h 64 W/m 23,1 km/h (4 Bft)
27.10.2013 15:00 14,4 C 86 % 1011,8 hPa 0,4 l/m W 0,58 h 152 W/m 26,8 km/h (4 Bft)
27.10.2013 16:00 15,0 C 75 % 1011,8 hPa 0,0 l/m W 0,08 h 35 W/m 25,7 km/h (4 Bft)
27.10.2013 17:00 14,2 C 78 % 1012,3 hPa 0,0 l/m W-SW 0,00 h 5 W/m 19,7 km/h (3 Bft)
27.10.2013 18:00 14,0 C 79 % 1013,0 hPa 0,0 l/m SW 0,00 h 0 W/m 18,4 km/h (3 Bft)
27.10.2013 19:00 12,9 C 89 % 1013,7 hPa 0,0 l/m SW 0,00 h 0 W/m 10,4 km/h (2 Bft)
27.10.2013 20:00 13,7 C 80 % 1014,3 hPa 0,0 l/m W-SW 0,00 h 0 W/m 19,6 km/h (3 Bft)
27.10.2013 21:00 13,8 C 81 % 1014,3 hPa 0,0 l/m W 0,00 h 0 W/m 14,5 km/h (3 Bft)
27.10.2013 22:00 13,1 C 82 % 1013,4 hPa 0,0 l/m W 0,00 h 0 W/m 4,9 km/h (1 Bft)
27.10.2013 23:00 12,0 C 86 % 1013,0 hPa 0,0 l/m N 0,00 h 0 W/m 3,2 km/h (1 Bft)
Min-Datum _ 25.10.13 22.10.13 23.10.13 - - - - 21.10.13
_ Min-Zeit 08:30 15:15 05:00 - - - - 00:00
Minimum _ 5,9 C 53 % 1006,4 hPa - - - - 0,0 km/h (0 Bft)
Max-Datum _ 22.10.13 21.10.13 24.10.13 23.10.13 - 21.10.13 21.10.13 27.10.13
_ Max-Zeit 15:10 01:50 10:20 13:30 - 10:05 13:05 13:25
Maximum _ 23,1 C 100 % 1019,1 hPa 3,0 l/m - 0,08 h 649 W/m 37,0 km/h
W-SW (5 Bft)
Durchschnitt _ 12,3 C 91 % 1014,8 hPa #13,8 l/m SW #23:05 h 153 W/m 5,5 km/h (1 Bft)